sensor_id;sensor_type;location;lat;lon;timestamp;P1;durP1;ratioP1;P2;durP2;ratioP2
16624;SDS011;8426;48.496;9.098;2024-01-30T00:04:49;9.13;;;4.90;;
16624;SDS011;8426;48.496;9.098;2024-01-30T00:09:53;7.93;;;4.67;;
16624;SDS011;8426;48.496;9.098;2024-01-30T00:14:56;9.60;;;5.07;;
16624;SDS011;8426;48.496;9.098;2024-01-30T00:20:03;9.63;;;5.37;;
16624;SDS011;8426;48.496;9.098;2024-01-30T00:25:09;10.03;;;5.43;;
16624;SDS011;8426;48.496;9.098;2024-01-30T00:30:13;13.73;;;5.60;;
16624;SDS011;8426;48.496;9.098;2024-01-30T00:35:19;12.07;;;5.20;;
16624;SDS011;8426;48.496;9.098;2024-01-30T00:40:24;12.23;;;5.77;;
16624;SDS011;8426;48.496;9.098;2024-01-30T00:45:28;11.57;;;5.83;;
16624;SDS011;8426;48.496;9.098;2024-01-30T00:50:38;10.37;;;5.50;;
16624;SDS011;8426;48.496;9.098;2024-01-30T00:55:56;11.17;;;5.97;;
16624;SDS011;8426;48.496;9.098;2024-01-30T01:01:20;9.27;;;5.43;;
16624;SDS011;8426;48.496;9.098;2024-01-30T01:06:59;9.20;;;5.33;;
16624;SDS011;8426;48.496;9.098;2024-01-30T01:12:21;11.47;;;5.67;;
16624;SDS011;8426;48.496;9.098;2024-01-30T01:17:36;13.60;;;5.50;;
16624;SDS011;8426;48.496;9.098;2024-01-30T01:22:56;9.70;;;4.70;;
16624;SDS011;8426;48.496;9.098;2024-01-30T01:28:25;9.70;;;4.53;;
16624;SDS011;8426;48.496;9.098;2024-01-30T01:33:39;8.40;;;4.97;;
16624;SDS011;8426;48.496;9.098;2024-01-30T01:38:45;9.60;;;5.07;;
16624;SDS011;8426;48.496;9.098;2024-01-30T01:43:53;11.07;;;5.00;;
16624;SDS011;8426;48.496;9.098;2024-01-30T01:49:10;10.57;;;5.00;;
16624;SDS011;8426;48.496;9.098;2024-01-30T01:54:19;11.20;;;4.80;;
16624;SDS011;8426;48.496;9.098;2024-01-30T01:59:55;7.20;;;4.40;;
16624;SDS011;8426;48.496;9.098;2024-01-30T02:05:15;9.73;;;3.60;;
16624;SDS011;8426;48.496;9.098;2024-01-30T02:10:37;9.37;;;4.23;;
16624;SDS011;8426;48.496;9.098;2024-01-30T02:15:58;7.43;;;4.00;;
16624;SDS011;8426;48.496;9.098;2024-01-30T02:21:18;6.33;;;3.47;;
16624;SDS011;8426;48.496;9.098;2024-01-30T02:26:33;9.67;;;4.47;;
16624;SDS011;8426;48.496;9.098;2024-01-30T02:31:48;7.10;;;3.57;;
16624;SDS011;8426;48.496;9.098;2024-01-30T02:37:09;7.90;;;3.47;;
16624;SDS011;8426;48.496;9.098;2024-01-30T02:42:18;9.90;;;3.93;;
16624;SDS011;8426;48.496;9.098;2024-01-30T02:47:26;6.97;;;3.77;;
16624;SDS011;8426;48.496;9.098;2024-01-30T02:52:43;10.23;;;4.07;;
16624;SDS011;8426;48.496;9.098;2024-01-30T02:58:10;8.20;;;3.97;;
16624;SDS011;8426;48.496;9.098;2024-01-30T03:03:25;9.77;;;3.40;;
16624;SDS011;8426;48.496;9.098;2024-01-30T03:09:04;7.57;;;3.63;;
16624;SDS011;8426;48.496;9.098;2024-01-30T03:14:27;8.50;;;4.33;;
16624;SDS011;8426;48.496;9.098;2024-01-30T03:20:00;6.90;;;4.23;;
16624;SDS011;8426;48.496;9.098;2024-01-30T03:25:36;9.53;;;4.30;;
16624;SDS011;8426;48.496;9.098;2024-01-30T03:30:42;7.73;;;4.53;;
16624;SDS011;8426;48.496;9.098;2024-01-30T03:35:47;12.60;;;5.27;;
16624;SDS011;8426;48.496;9.098;2024-01-30T03:41:07;9.00;;;4.87;;
16624;SDS011;8426;48.496;9.098;2024-01-30T03:46:18;7.27;;;4.10;;
16624;SDS011;8426;48.496;9.098;2024-01-30T03:51:30;8.00;;;3.63;;
16624;SDS011;8426;48.496;9.098;2024-01-30T03:56:38;10.23;;;4.00;;
16624;SDS011;8426;48.496;9.098;2024-01-30T04:01:46;10.20;;;5.00;;
16624;SDS011;8426;48.496;9.098;2024-01-30T04:06:52;7.57;;;4.00;;
16624;SDS011;8426;48.496;9.098;2024-01-30T04:12:08;8.13;;;4.63;;
16624;SDS011;8426;48.496;9.098;2024-01-30T04:17:38;7.57;;;4.93;;
16624;SDS011;8426;48.496;9.098;2024-01-30T04:23:02;12.27;;;5.80;;
16624;SDS011;8426;48.496;9.098;2024-01-30T04:28:25;13.10;;;6.00;;
16624;SDS011;8426;48.496;9.098;2024-01-30T04:33:40;10.87;;;5.80;;
16624;SDS011;8426;48.496;9.098;2024-01-30T04:38:56;9.67;;;5.53;;
16624;SDS011;8426;48.496;9.098;2024-01-30T04:44:27;13.77;;;6.33;;
16624;SDS011;8426;48.496;9.098;2024-01-30T04:49:56;9.90;;;5.70;;
16624;SDS011;8426;48.496;9.098;2024-01-30T04:55:01;11.90;;;5.53;;
16624;SDS011;8426;48.496;9.098;2024-01-30T05:00:17;15.27;;;6.33;;
16624;SDS011;8426;48.496;9.098;2024-01-30T05:05:28;11.60;;;6.47;;
16624;SDS011;8426;48.496;9.098;2024-01-30T05:10:42;13.80;;;6.40;;
16624;SDS011;8426;48.496;9.098;2024-01-30T05:15:58;11.50;;;5.97;;
16624;SDS011;8426;48.496;9.098;2024-01-30T05:21:14;11.77;;;6.17;;
16624;SDS011;8426;48.496;9.098;2024-01-30T05:26:31;14.93;;;6.60;;
16624;SDS011;8426;48.496;9.098;2024-01-30T05:31:42;11.10;;;6.47;;
16624;SDS011;8426;48.496;9.098;2024-01-30T05:36:48;10.90;;;5.73;;
16624;SDS011;8426;48.496;9.098;2024-01-30T05:41:57;10.47;;;5.90;;
16624;SDS011;8426;48.496;9.098;2024-01-30T05:47:18;11.67;;;5.90;;
16624;SDS011;8426;48.496;9.098;2024-01-30T05:52:32;9.77;;;5.73;;
16624;SDS011;8426;48.496;9.098;2024-01-30T05:57:55;11.37;;;6.40;;
16624;SDS011;8426;48.496;9.098;2024-01-30T06:03:10;12.07;;;5.63;;
16624;SDS011;8426;48.496;9.098;2024-01-30T06:08:22;10.00;;;5.67;;
16624;SDS011;8426;48.496;9.098;2024-01-30T06:13:28;13.07;;;5.97;;
16624;SDS011;8426;48.496;9.098;2024-01-30T06:18:38;13.13;;;6.83;;
16624;SDS011;8426;48.496;9.098;2024-01-30T06:23:54;12.47;;;5.93;;
16624;SDS011;8426;48.496;9.098;2024-01-30T06:29:03;10.97;;;5.43;;
16624;SDS011;8426;48.496;9.098;2024-01-30T06:34:28;10.00;;;5.10;;
16624;SDS011;8426;48.496;9.098;2024-01-30T06:39:35;11.27;;;5.83;;
16624;SDS011;8426;48.496;9.098;2024-01-30T06:44:47;11.03;;;5.23;;
16624;SDS011;8426;48.496;9.098;2024-01-30T06:49:55;9.47;;;4.43;;
16624;SDS011;8426;48.496;9.098;2024-01-30T06:55:18;11.23;;;5.17;;
16624;SDS011;8426;48.496;9.098;2024-01-30T07:00:39;8.40;;;4.50;;
16624;SDS011;8426;48.496;9.098;2024-01-30T07:06:05;9.77;;;6.20;;
16624;SDS011;8426;48.496;9.098;2024-01-30T07:11:27;8.40;;;4.47;;
16624;SDS011;8426;48.496;9.098;2024-01-30T07:17:08;9.30;;;4.47;;
16624;SDS011;8426;48.496;9.098;2024-01-30T07:22:21;6.67;;;3.53;;
16624;SDS011;8426;48.496;9.098;2024-01-30T07:27:25;9.10;;;4.00;;
16624;SDS011;8426;48.496;9.098;2024-01-30T07:32:29;7.60;;;3.40;;
16624;SDS011;8426;48.496;9.098;2024-01-30T07:37:35;11.83;;;4.00;;
16624;SDS011;8426;48.496;9.098;2024-01-30T07:42:38;6.63;;;3.83;;
16624;SDS011;8426;48.496;9.098;2024-01-30T07:47:42;7.00;;;3.50;;
16624;SDS011;8426;48.496;9.098;2024-01-30T07:52:55;8.03;;;4.40;;
16624;SDS011;8426;48.496;9.098;2024-01-30T07:57:59;6.60;;;3.87;;
16624;SDS011;8426;48.496;9.098;2024-01-30T08:03:04;9.13;;;4.77;;
16624;SDS011;8426;48.496;9.098;2024-01-30T08:08:09;7.53;;;4.50;;
16624;SDS011;8426;48.496;9.098;2024-01-30T08:13:13;5.23;;;3.60;;
16624;SDS011;8426;48.496;9.098;2024-01-30T08:18:18;7.10;;;3.47;;
16624;SDS011;8426;48.496;9.098;2024-01-30T08:28:37;6.40;;;3.75;;
16624;SDS011;8426;48.496;9.098;2024-01-30T08:33:41;7.85;;;3.65;;
16624;SDS011;8426;48.496;9.098;2024-01-30T08:38:49;5.65;;;3.63;;
16624;SDS011;8426;48.496;9.098;2024-01-30T08:44:03;6.35;;;3.50;;
16624;SDS011;8426;48.496;9.098;2024-01-30T08:49:07;6.38;;;3.45;;
16624;SDS011;8426;48.496;9.098;2024-01-30T08:54:12;7.60;;;3.38;;
16624;SDS011;8426;48.496;9.098;2024-01-30T08:59:16;7.47;;;3.53;;
16624;SDS011;8426;48.496;9.098;2024-01-30T09:04:22;7.97;;;3.67;;
16624;SDS011;8426;48.496;9.098;2024-01-30T09:09:28;6.40;;;3.05;;
16624;SDS011;8426;48.496;9.098;2024-01-30T09:14:32;8.65;;;4.22;;
16624;SDS011;8426;48.496;9.098;2024-01-30T09:19:36;7.75;;;3.85;;
16624;SDS011;8426;48.496;9.098;2024-01-30T09:24:47;7.38;;;3.30;;
16624;SDS011;8426;48.496;9.098;2024-01-30T09:29:51;9.65;;;3.42;;
16624;SDS011;8426;48.496;9.098;2024-01-30T09:34:54;8.32;;;3.42;;
16624;SDS011;8426;48.496;9.098;2024-01-30T09:40:00;5.82;;;3.50;;
16624;SDS011;8426;48.496;9.098;2024-01-30T09:45:04;8.40;;;3.53;;
16624;SDS011;8426;48.496;9.098;2024-01-30T09:50:08;5.05;;;3.03;;
16624;SDS011;8426;48.496;9.098;2024-01-30T09:55:14;5.70;;;3.63;;
16624;SDS011;8426;48.496;9.098;2024-01-30T10:00:25;6.53;;;3.42;;
16624;SDS011;8426;48.496;9.098;2024-01-30T10:05:29;6.60;;;3.00;;
16624;SDS011;8426;48.496;9.098;2024-01-30T10:10:37;4.60;;;2.40;;
16624;SDS011;8426;48.496;9.098;2024-01-30T10:15:41;8.63;;;3.95;;
16624;SDS011;8426;48.496;9.098;2024-01-30T10:20:45;9.65;;;3.80;;
16624;SDS011;8426;48.496;9.098;2024-01-30T10:25:51;7.97;;;3.78;;
16624;SDS011;8426;48.496;9.098;2024-01-30T10:31:00;9.23;;;4.68;;
16624;SDS011;8426;48.496;9.098;2024-01-30T10:36:13;6.20;;;3.58;;
16624;SDS011;8426;48.496;9.098;2024-01-30T10:41:24;5.30;;;2.92;;
16624;SDS011;8426;48.496;9.098;2024-01-30T10:46:30;4.22;;;2.70;;
16624;SDS011;8426;48.496;9.098;2024-01-30T10:51:36;5.43;;;2.40;;
16624;SDS011;8426;48.496;9.098;2024-01-30T10:56:42;6.05;;;3.58;;
16624;SDS011;8426;48.496;9.098;2024-01-30T11:01:48;8.25;;;3.35;;
16624;SDS011;8426;48.496;9.098;2024-01-30T11:06:53;5.13;;;2.25;;
16624;SDS011;8426;48.496;9.098;2024-01-30T11:12:01;3.97;;;2.28;;
16624;SDS011;8426;48.496;9.098;2024-01-30T11:17:06;5.47;;;3.17;;
16624;SDS011;8426;48.496;9.098;2024-01-30T11:22:21;7.90;;;3.63;;
16624;SDS011;8426;48.496;9.098;2024-01-30T11:27:27;7.82;;;3.40;;
16624;SDS011;8426;48.496;9.098;2024-01-30T11:32:33;5.82;;;3.42;;
16624;SDS011;8426;48.496;9.098;2024-01-30T11:37:38;6.80;;;3.83;;
16624;SDS011;8426;48.496;9.098;2024-01-30T11:42:44;5.43;;;3.05;;
16624;SDS011;8426;48.496;9.098;2024-01-30T11:47:50;4.70;;;2.45;;
16624;SDS011;8426;48.496;9.098;2024-01-30T11:52:54;6.80;;;2.20;;
16624;SDS011;8426;48.496;9.098;2024-01-30T11:58:06;4.70;;;2.63;;
16624;SDS011;8426;48.496;9.098;2024-01-30T12:03:11;5.38;;;2.35;;
16624;SDS011;8426;48.496;9.098;2024-01-30T12:08:15;4.20;;;2.30;;
16624;SDS011;8426;48.496;9.098;2024-01-30T12:13:22;4.63;;;2.25;;
16624;SDS011;8426;48.496;9.098;2024-01-30T12:18:31;4.22;;;2.00;;
16624;SDS011;8426;48.496;9.098;2024-01-30T12:23:42;4.93;;;2.30;;
16624;SDS011;8426;48.496;9.098;2024-01-30T12:28:55;3.90;;;2.15;;
16624;SDS011;8426;48.496;9.098;2024-01-30T12:34:00;9.10;;;4.40;;
16624;SDS011;8426;48.496;9.098;2024-01-30T12:39:04;6.20;;;3.90;;
16624;SDS011;8426;48.496;9.098;2024-01-30T12:44:09;12.30;;;4.70;;
16624;SDS011;8426;48.496;9.098;2024-01-30T12:49:14;11.15;;;3.38;;
16624;SDS011;8426;48.496;9.098;2024-01-30T12:54:19;3.70;;;2.47;;
16624;SDS011;8426;48.496;9.098;2024-01-30T12:59:24;6.80;;;2.63;;
16624;SDS011;8426;48.496;9.098;2024-01-30T13:04:29;8.15;;;2.50;;
16624;SDS011;8426;48.496;9.098;2024-01-30T13:09:33;7.38;;;1.95;;
16624;SDS011;8426;48.496;9.098;2024-01-30T13:14:38;3.17;;;1.50;;
16624;SDS011;8426;48.496;9.098;2024-01-30T13:19:42;4.00;;;1.65;;
16624;SDS011;8426;48.496;9.098;2024-01-30T13:24:45;5.05;;;1.83;;
16624;SDS011;8426;48.496;9.098;2024-01-30T13:29:57;5.30;;;2.30;;
16624;SDS011;8426;48.496;9.098;2024-01-30T13:35:02;3.50;;;2.13;;
16624;SDS011;8426;48.496;9.098;2024-01-30T13:40:13;5.13;;;2.35;;
16624;SDS011;8426;48.496;9.098;2024-01-30T13:45:19;4.65;;;2.05;;
16624;SDS011;8426;48.496;9.098;2024-01-30T13:50:24;6.15;;;1.88;;
16624;SDS011;8426;48.496;9.098;2024-01-30T13:55:28;3.58;;;1.88;;
16624;SDS011;8426;48.496;9.098;2024-01-30T14:00:33;2.15;;;1.35;;
16624;SDS011;8426;48.496;9.098;2024-01-30T14:05:37;2.13;;;1.20;;
16624;SDS011;8426;48.496;9.098;2024-01-30T14:10:49;4.15;;;1.70;;
16624;SDS011;8426;48.496;9.098;2024-01-30T14:15:55;3.40;;;1.63;;
16624;SDS011;8426;48.496;9.098;2024-01-30T14:21:03;2.33;;;1.20;;
16624;SDS011;8426;48.496;9.098;2024-01-30T14:26:06;4.18;;;1.17;;
16624;SDS011;8426;48.496;9.098;2024-01-30T14:31:13;5.38;;;1.42;;
16624;SDS011;8426;48.496;9.098;2024-01-30T14:36:18;4.40;;;1.23;;
16624;SDS011;8426;48.496;9.098;2024-01-30T14:41:22;2.17;;;1.33;;
16624;SDS011;8426;48.496;9.098;2024-01-30T14:46:28;3.10;;;1.83;;
16624;SDS011;8426;48.496;9.098;2024-01-30T14:51:32;3.25;;;1.60;;
16624;SDS011;8426;48.496;9.098;2024-01-30T14:56:35;3.72;;;1.65;;
16624;SDS011;8426;48.496;9.098;2024-01-30T15:01:46;1.90;;;1.30;;
16624;SDS011;8426;48.496;9.098;2024-01-30T15:06:50;2.17;;;1.40;;
16624;SDS011;8426;48.496;9.098;2024-01-30T15:11:54;3.03;;;1.30;;
16624;SDS011;8426;48.496;9.098;2024-01-30T15:17:05;3.78;;;1.80;;
16624;SDS011;8426;48.496;9.098;2024-01-30T15:22:09;6.28;;;1.70;;
16624;SDS011;8426;48.496;9.098;2024-01-30T15:27:13;10.30;;;2.00;;
16624;SDS011;8426;48.496;9.098;2024-01-30T15:32:22;6.95;;;2.80;;
16624;SDS011;8426;48.496;9.098;2024-01-30T15:37:28;4.53;;;1.88;;
16624;SDS011;8426;48.496;9.098;2024-01-30T15:42:32;3.42;;;1.50;;
16624;SDS011;8426;48.496;9.098;2024-01-30T15:47:37;6.82;;;1.40;;
16624;SDS011;8426;48.496;9.098;2024-01-30T15:52:40;2.70;;;1.60;;
16624;SDS011;8426;48.496;9.098;2024-01-30T15:57:45;2.20;;;1.42;;
16624;SDS011;8426;48.496;9.098;2024-01-30T16:02:50;3.20;;;1.45;;
16624;SDS011;8426;48.496;9.098;2024-01-30T16:07:57;3.83;;;1.38;;
16624;SDS011;8426;48.496;9.098;2024-01-30T16:13:00;6.68;;;1.55;;
16624;SDS011;8426;48.496;9.098;2024-01-30T16:18:12;3.30;;;1.70;;
16624;SDS011;8426;48.496;9.098;2024-01-30T16:23:23;2.78;;;1.58;;
16624;SDS011;8426;48.496;9.098;2024-01-30T16:28:27;5.05;;;1.73;;
16624;SDS011;8426;48.496;9.098;2024-01-30T16:33:37;4.93;;;1.60;;
16624;SDS011;8426;48.496;9.098;2024-01-30T16:38:42;2.33;;;1.55;;
16624;SDS011;8426;48.496;9.098;2024-01-30T16:43:45;4.85;;;1.65;;
16624;SDS011;8426;48.496;9.098;2024-01-30T16:48:51;7.30;;;1.77;;
16624;SDS011;8426;48.496;9.098;2024-01-30T16:53:55;1.77;;;1.23;;
16624;SDS011;8426;48.496;9.098;2024-01-30T16:59:01;3.22;;;1.05;;
16624;SDS011;8426;48.496;9.098;2024-01-30T17:04:07;2.45;;;1.30;;
16624;SDS011;8426;48.496;9.098;2024-01-30T17:09:11;4.53;;;1.60;;
16624;SDS011;8426;48.496;9.098;2024-01-30T17:14:16;8.88;;;1.95;;
16624;SDS011;8426;48.496;9.098;2024-01-30T17:19:22;4.17;;;2.40;;
16624;SDS011;8426;48.496;9.098;2024-01-30T17:24:26;3.97;;;2.25;;
16624;SDS011;8426;48.496;9.098;2024-01-30T17:29:47;5.15;;;1.90;;
16624;SDS011;8426;48.496;9.098;2024-01-30T17:34:51;4.68;;;1.90;;
16624;SDS011;8426;48.496;9.098;2024-01-30T17:39:55;4.53;;;1.95;;
16624;SDS011;8426;48.496;9.098;2024-01-30T17:45:00;4.78;;;2.13;;
16624;SDS011;8426;48.496;9.098;2024-01-30T17:50:07;5.00;;;2.53;;
16624;SDS011;8426;48.496;9.098;2024-01-30T17:55:11;5.20;;;2.28;;
16624;SDS011;8426;48.496;9.098;2024-01-30T18:00:15;3.72;;;2.30;;
16624;SDS011;8426;48.496;9.098;2024-01-30T18:05:22;6.40;;;2.60;;
16624;SDS011;8426;48.496;9.098;2024-01-30T18:10:26;9.60;;;2.50;;
16624;SDS011;8426;48.496;9.098;2024-01-30T18:15:33;4.35;;;2.47;;
16624;SDS011;8426;48.496;9.098;2024-01-30T18:20:38;5.88;;;3.13;;
16624;SDS011;8426;48.496;9.098;2024-01-30T18:25:42;4.85;;;2.85;;
16624;SDS011;8426;48.496;9.098;2024-01-30T18:30:46;4.60;;;2.28;;
16624;SDS011;8426;48.496;9.098;2024-01-30T18:35:51;6.78;;;2.80;;
16624;SDS011;8426;48.496;9.098;2024-01-30T18:40:55;4.25;;;2.20;;
16624;SDS011;8426;48.496;9.098;2024-01-30T18:45:58;6.20;;;2.75;;
16624;SDS011;8426;48.496;9.098;2024-01-30T18:51:05;4.80;;;2.20;;
16624;SDS011;8426;48.496;9.098;2024-01-30T18:56:09;7.65;;;2.58;;
16624;SDS011;8426;48.496;9.098;2024-01-30T19:01:15;4.03;;;2.10;;
16624;SDS011;8426;48.496;9.098;2024-01-30T19:06:22;6.18;;;2.10;;
16624;SDS011;8426;48.496;9.098;2024-01-30T19:11:26;7.97;;;1.80;;
16624;SDS011;8426;48.496;9.098;2024-01-30T19:16:30;4.32;;;2.15;;
16624;SDS011;8426;48.496;9.098;2024-01-30T19:21:35;3.33;;;1.92;;
16624;SDS011;8426;48.496;9.098;2024-01-30T19:26:38;2.47;;;1.67;;
16624;SDS011;8426;48.496;9.098;2024-01-30T19:31:42;4.30;;;2.13;;
16624;SDS011;8426;48.496;9.098;2024-01-30T19:36:52;3.47;;;1.98;;
16624;SDS011;8426;48.496;9.098;2024-01-30T19:42:02;5.03;;;2.08;;
16624;SDS011;8426;48.496;9.098;2024-01-30T19:47:20;3.70;;;2.03;;
16624;SDS011;8426;48.496;9.098;2024-01-30T19:52:34;4.78;;;2.45;;
16624;SDS011;8426;48.496;9.098;2024-01-30T19:57:44;6.45;;;3.15;;
16624;SDS011;8426;48.496;9.098;2024-01-30T20:02:51;7.72;;;3.53;;
16624;SDS011;8426;48.496;9.098;2024-01-30T20:08:13;6.28;;;3.47;;
16624;SDS011;8426;48.496;9.098;2024-01-30T20:13:22;6.50;;;3.70;;
16624;SDS011;8426;48.496;9.098;2024-01-30T20:18:49;10.25;;;3.85;;
16624;SDS011;8426;48.496;9.098;2024-01-30T20:24:19;13.15;;;5.45;;
16624;SDS011;8426;48.496;9.098;2024-01-30T20:29:31;13.98;;;4.70;;
16624;SDS011;8426;48.496;9.098;2024-01-30T20:34:53;6.88;;;3.85;;
16624;SDS011;8426;48.496;9.098;2024-01-30T20:40:24;11.20;;;3.88;;
16624;SDS011;8426;48.496;9.098;2024-01-30T20:45:33;6.72;;;3.40;;
16624;SDS011;8426;48.496;9.098;2024-01-30T20:50:46;6.13;;;3.35;;
16624;SDS011;8426;48.496;9.098;2024-01-30T20:55:57;8.40;;;3.35;;
16624;SDS011;8426;48.496;9.098;2024-01-30T21:01:16;6.70;;;3.50;;
16624;SDS011;8426;48.496;9.098;2024-01-30T21:06:23;6.88;;;3.10;;
16624;SDS011;8426;48.496;9.098;2024-01-30T21:11:39;6.07;;;3.05;;
16624;SDS011;8426;48.496;9.098;2024-01-30T21:16:48;5.25;;;3.13;;
16624;SDS011;8426;48.496;9.098;2024-01-30T21:22:00;5.10;;;2.83;;
16624;SDS011;8426;48.496;9.098;2024-01-30T21:27:12;5.93;;;3.20;;
16624;SDS011;8426;48.496;9.098;2024-01-30T21:32:30;9.68;;;4.20;;
16624;SDS011;8426;48.496;9.098;2024-01-30T21:37:38;9.10;;;4.35;;
16624;SDS011;8426;48.496;9.098;2024-01-30T21:42:51;12.95;;;4.70;;
16624;SDS011;8426;48.496;9.098;2024-01-30T21:47:56;12.30;;;4.97;;
16624;SDS011;8426;48.496;9.098;2024-01-30T21:53:17;8.88;;;4.60;;
16624;SDS011;8426;48.496;9.098;2024-01-30T21:58:31;12.60;;;5.10;;
16624;SDS011;8426;48.496;9.098;2024-01-30T22:03:42;9.65;;;4.80;;
16624;SDS011;8426;48.496;9.098;2024-01-30T22:08:51;9.63;;;5.18;;
16624;SDS011;8426;48.496;9.098;2024-01-30T22:13:59;8.57;;;4.40;;
16624;SDS011;8426;48.496;9.098;2024-01-30T22:19:10;8.82;;;4.63;;
16624;SDS011;8426;48.496;9.098;2024-01-30T22:24:19;7.85;;;4.93;;
16624;SDS011;8426;48.496;9.098;2024-01-30T22:29:32;8.90;;;4.90;;
16624;SDS011;8426;48.496;9.098;2024-01-30T22:34:44;9.73;;;4.97;;
16624;SDS011;8426;48.496;9.098;2024-01-30T22:39:49;11.73;;;4.38;;
16624;SDS011;8426;48.496;9.098;2024-01-30T22:45:00;8.43;;;4.95;;
16624;SDS011;8426;48.496;9.098;2024-01-30T22:50:10;9.45;;;4.85;;
16624;SDS011;8426;48.496;9.098;2024-01-30T22:55:21;11.45;;;5.00;;
16624;SDS011;8426;48.496;9.098;2024-01-30T23:00:30;11.75;;;5.05;;
16624;SDS011;8426;48.496;9.098;2024-01-30T23:05:45;10.38;;;4.88;;
16624;SDS011;8426;48.496;9.098;2024-01-30T23:10:57;9.60;;;5.22;;
16624;SDS011;8426;48.496;9.098;2024-01-30T23:16:07;9.57;;;5.00;;
16624;SDS011;8426;48.496;9.098;2024-01-30T23:21:15;9.13;;;4.53;;
16624;SDS011;8426;48.496;9.098;2024-01-30T23:26:40;8.35;;;4.60;;
16624;SDS011;8426;48.496;9.098;2024-01-30T23:31:55;9.52;;;4.78;;
16624;SDS011;8426;48.496;9.098;2024-01-30T23:37:04;8.57;;;4.50;;
16624;SDS011;8426;48.496;9.098;2024-01-30T23:42:19;8.77;;;4.30;;
16624;SDS011;8426;48.496;9.098;2024-01-30T23:47:42;9.20;;;5.03;;
16624;SDS011;8426;48.496;9.098;2024-01-30T23:52:47;8.98;;;5.03;;
16624;SDS011;8426;48.496;9.098;2024-01-30T23:57:51;8.40;;;4.63;;
